This is the latest recevied weather packets stored in our database for station/object KJ5JYX. If no packets are shown the sender has not sent any weather packets the latest 10 day(s).
| Time | Temp. | Humidity | Pressure | Rain* | Wind** | Luminosity | Snow |
|---|---|---|---|---|---|---|---|
| 1777659826 | 14.44° C | 99% | 1014.3 hPa | 0 mm | - | 223 W/m² | - |
| 1777659523 | 13.89° C | 99% | 1014.4 hPa | 0 mm | - | 287 W/m² | - |
| 1777658917 | 13.89° C | 99% | 1014.9 hPa | 3.05 mm | - | 210 W/m² | - |
| 1777658613 | 13.89° C | 99% | 1015.2 hPa | 6.1 mm | - | 192 W/m² | - |
| 1777658007 | 13.33° C | 99% | 1016.7 hPa | 6.6 mm | - | 111 W/m² | - |
| 1777657099 | 13.33° C | 99% | 1017.4 hPa | 7.11 mm | - | 45 W/m² | - |
| 1777656797 | 13.33° C | 99% | 1017 hPa | 13.72 mm | - | 24 W/m² | - |
| 1777656187 | 13.33° C | 99% | 1016.5 hPa | 8.89 mm | - | 44 W/m² | - |
| 1777654369 | 13.89° C | 98% | 1015 hPa | 0 mm | - | 135 W/m² | - |
| 1777654067 | 13.89° C | 98% | 1015.2 hPa | 0 mm | - | 92 W/m² | - |
| 1777653459 | 13.89° C | 98% | 1015.1 hPa | 0 mm | - | 92 W/m² | - |
| 1777653157 | 14.44° C | 98% | 1015 hPa | 0 mm | - | 135 W/m² | - |
| 1777652852 | 14.44° C | 99% | 1015 hPa | 0 mm | - | 142 W/m² | - |
| 1777652549 | 14.44° C | 98% | 1014.9 hPa | 0 mm | - | 122 W/m² | - |
| 1777652246 | 13.89° C | 98% | 1015 hPa | 0 mm | - | 121 W/m² | - |
| 1777651944 | 14.44° C | 99% | 1014.8 hPa | 0 mm | - | 101 W/m² | - |
| 1777651640 | 14.44° C | 99% | 1014.6 hPa | 0 mm | - | 132 W/m² | - |
| 1777651337 | 14.44° C | 99% | 1014.9 hPa | 0 mm | - | 98 W/m² | - |
| 1777651034 | 14.44° C | 99% | 1014.8 hPa | 0 mm | - | 126 W/m² | - |
| 1777650731 | 15° C | 99% | 1014.7 hPa | 0 mm | - | 205 W/m² | - |
| 1777650428 | 15° C | 99% | 1014.5 hPa | 0 mm | - | 316 W/m² | - |
| 1777650125 | 14.44° C | 99% | 1014.6 hPa | 0 mm | - | 193 W/m² | - |
| 1777649823 | 14.44° C | 99% | 1014.2 hPa | 0 mm | - | 148 W/m² | - |
| 1777649520 | 14.44° C | 99% | 1014.4 hPa | 0 mm | - | 168 W/m² | - |
| 1777649215 | 14.44° C | 99% | 1014.6 hPa | 0 mm | - | 115 W/m² | - |
* Rain latest hour (hover to see other rain measurements)
** Current wind speed in m/s (hover to see current wind gust speed)